sensor_id;sensor_type;location;lat;lon;timestamp;temperature;humidity
20366;DHT22;10341;49.894;8.822;2023-02-15T00:05:15;2.20;99.90
20366;DHT22;10341;49.894;8.822;2023-02-15T00:10:35;2.20;99.90
20366;DHT22;10341;49.894;8.822;2023-02-15T00:15:54;2.20;99.90
20366;DHT22;10341;49.894;8.822;2023-02-15T00:21:13;2.20;99.90
20366;DHT22;10341;49.894;8.822;2023-02-15T00:26:33;2.20;99.90
20366;DHT22;10341;49.894;8.822;2023-02-15T00:31:52;2.20;99.90
20366;DHT22;10341;49.894;8.822;2023-02-15T00:37:12;2.20;99.90
20366;DHT22;10341;49.894;8.822;2023-02-15T00:42:31;2.20;99.90
20366;DHT22;10341;49.894;8.822;2023-02-15T00:47:51;2.30;99.90
20366;DHT22;10341;49.894;8.822;2023-02-15T00:53:10;2.30;99.90
20366;DHT22;10341;49.894;8.822;2023-02-15T00:58:30;2.40;99.90
20366;DHT22;10341;49.894;8.822;2023-02-15T01:03:49;2.40;99.90
20366;DHT22;10341;49.894;8.822;2023-02-15T01:09:09;2.40;99.90
20366;DHT22;10341;49.894;8.822;2023-02-15T01:14:30;2.50;99.90
20366;DHT22;10341;49.894;8.822;2023-02-15T01:19:50;2.50;99.90
20366;DHT22;10341;49.894;8.822;2023-02-15T01:25:11;2.40;99.90
20366;DHT22;10341;49.894;8.822;2023-02-15T01:30:31;2.50;99.90
20366;DHT22;10341;49.894;8.822;2023-02-15T01:35:58;2.50;99.90
20366;DHT22;10341;49.894;8.822;2023-02-15T01:41:17;2.50;99.90
20366;DHT22;10341;49.894;8.822;2023-02-15T01:46:46;2.60;99.90
20366;DHT22;10341;49.894;8.822;2023-02-15T01:52:10;2.60;99.90
20366;DHT22;10341;49.894;8.822;2023-02-15T01:57:31;2.50;99.90
20366;DHT22;10341;49.894;8.822;2023-02-15T02:02:53;2.60;99.90
20366;DHT22;10341;49.894;8.822;2023-02-15T02:08:17;2.50;99.90
20366;DHT22;10341;49.894;8.822;2023-02-15T02:13:38;2.40;99.90
20366;DHT22;10341;49.894;8.822;2023-02-15T02:19:18;2.40;99.90
20366;DHT22;10341;49.894;8.822;2023-02-15T02:30:49;2.20;99.90
20366;DHT22;10341;49.894;8.822;2023-02-15T02:36:36;2.20;99.90
20366;DHT22;10341;49.894;8.822;2023-02-15T02:47:59;2.20;99.90
20366;DHT22;10341;49.894;8.822;2023-02-15T02:53:19;2.20;99.90
20366;DHT22;10341;49.894;8.822;2023-02-15T02:59:07;2.30;99.90
20366;DHT22;10341;49.894;8.822;2023-02-15T03:04:28;2.30;99.90
20366;DHT22;10341;49.894;8.822;2023-02-15T03:09:52;2.20;99.90
20366;DHT22;10341;49.894;8.822;2023-02-15T03:15:21;2.20;99.90
20366;DHT22;10341;49.894;8.822;2023-02-15T03:20:42;2.20;99.90
20366;DHT22;10341;49.894;8.822;2023-02-15T03:26:05;2.10;99.90
20366;DHT22;10341;49.894;8.822;2023-02-15T03:31:30;2.10;99.90
20366;DHT22;10341;49.894;8.822;2023-02-15T03:37:00;2.10;99.90
20366;DHT22;10341;49.894;8.822;2023-02-15T03:42:25;2.10;99.90
20366;DHT22;10341;49.894;8.822;2023-02-15T03:47:47;2.20;99.90
20366;DHT22;10341;49.894;8.822;2023-02-15T03:53:11;2.20;99.90
20366;DHT22;10341;49.894;8.822;2023-02-15T03:58:32;2.10;99.90
20366;DHT22;10341;49.894;8.822;2023-02-15T04:04:17;2.10;99.90
20366;DHT22;10341;49.894;8.822;2023-02-15T04:09:37;2.00;99.90
20366;DHT22;10341;49.894;8.822;2023-02-15T04:15:15;2.00;99.90
20366;DHT22;10341;49.894;8.822;2023-02-15T04:20:53;2.00;99.90
20366;DHT22;10341;49.894;8.822;2023-02-15T04:26:31;2.00;99.90
20366;DHT22;10341;49.894;8.822;2023-02-15T04:31:51;2.00;99.90
20366;DHT22;10341;49.894;8.822;2023-02-15T04:37:11;1.90;99.90
20366;DHT22;10341;49.894;8.822;2023-02-15T04:42:31;1.90;99.90
20366;DHT22;10341;49.894;8.822;2023-02-15T04:47:50;1.80;99.90
20366;DHT22;10341;49.894;8.822;2023-02-15T04:53:10;1.70;99.90
20366;DHT22;10341;49.894;8.822;2023-02-15T04:58:29;1.60;99.90
20366;DHT22;10341;49.894;8.822;2023-02-15T05:03:48;1.60;99.90
20366;DHT22;10341;49.894;8.822;2023-02-15T05:09:07;1.60;99.90
20366;DHT22;10341;49.894;8.822;2023-02-15T05:14:27;1.60;99.90
20366;DHT22;10341;49.894;8.822;2023-02-15T05:19:46;1.50;99.90
20366;DHT22;10341;49.894;8.822;2023-02-15T05:25:06;1.50;99.90
20366;DHT22;10341;49.894;8.822;2023-02-15T05:30:47;1.50;99.90
20366;DHT22;10341;49.894;8.822;2023-02-15T05:36:07;1.50;99.90
20366;DHT22;10341;49.894;8.822;2023-02-15T05:41:26;1.30;99.90
20366;DHT22;10341;49.894;8.822;2023-02-15T05:46:46;1.30;99.90
20366;DHT22;10341;49.894;8.822;2023-02-15T05:52:05;1.10;99.90
20366;DHT22;10341;49.894;8.822;2023-02-15T05:57:25;1.10;99.90
20366;DHT22;10341;49.894;8.822;2023-02-15T06:02:45;1.00;99.90
20366;DHT22;10341;49.894;8.822;2023-02-15T06:08:04;1.00;99.90
20366;DHT22;10341;49.894;8.822;2023-02-15T06:13:24;0.90;99.90
20366;DHT22;10341;49.894;8.822;2023-02-15T06:18:43;1.00;99.90
20366;DHT22;10341;49.894;8.822;2023-02-15T06:24:03;1.00;99.90
20366;DHT22;10341;49.894;8.822;2023-02-15T06:29:23;1.00;99.90
20366;DHT22;10341;49.894;8.822;2023-02-15T06:34:42;0.90;99.90
20366;DHT22;10341;49.894;8.822;2023-02-15T06:40:01;0.80;99.90
20366;DHT22;10341;49.894;8.822;2023-02-15T06:45:20;0.90;99.90
20366;DHT22;10341;49.894;8.822;2023-02-15T06:50:39;0.80;99.90
20366;DHT22;10341;49.894;8.822;2023-02-15T06:56:04;0.70;99.90
20366;DHT22;10341;49.894;8.822;2023-02-15T07:01:25;0.60;99.90
20366;DHT22;10341;49.894;8.822;2023-02-15T07:06:45;0.60;99.90
20366;DHT22;10341;49.894;8.822;2023-02-15T07:12:06;0.60;99.90
20366;DHT22;10341;49.894;8.822;2023-02-15T07:17:44;0.60;99.90
20366;DHT22;10341;49.894;8.822;2023-02-15T07:23:04;0.70;99.90
20366;DHT22;10341;49.894;8.822;2023-02-15T07:28:24;0.60;99.90
20366;DHT22;10341;49.894;8.822;2023-02-15T07:33:43;0.70;99.90
20366;DHT22;10341;49.894;8.822;2023-02-15T07:39:03;0.50;99.90
20366;DHT22;10341;49.894;8.822;2023-02-15T07:44:22;0.50;99.90
20366;DHT22;10341;49.894;8.822;2023-02-15T07:49:42;0.50;99.90
20366;DHT22;10341;49.894;8.822;2023-02-15T07:55:01;0.50;99.90
20366;DHT22;10341;49.894;8.822;2023-02-15T08:00:21;0.70;99.90
20366;DHT22;10341;49.894;8.822;2023-02-15T08:06:00;0.80;99.90
20366;DHT22;10341;49.894;8.822;2023-02-15T08:11:21;1.00;99.90
20366;DHT22;10341;49.894;8.822;2023-02-15T08:16:55;1.10;99.90
20366;DHT22;10341;49.894;8.822;2023-02-15T08:22:18;1.20;99.90
20366;DHT22;10341;49.894;8.822;2023-02-15T08:27:37;1.10;99.90
20366;DHT22;10341;49.894;8.822;2023-02-15T08:32:57;1.30;99.90
20366;DHT22;10341;49.894;8.822;2023-02-15T08:38:16;1.30;99.90
20366;DHT22;10341;49.894;8.822;2023-02-15T08:43:36;1.20;99.90
20366;DHT22;10341;49.894;8.822;2023-02-15T08:48:56;1.40;99.90
20366;DHT22;10341;49.894;8.822;2023-02-15T08:54:18;1.40;99.90
20366;DHT22;10341;49.894;8.822;2023-02-15T08:59:37;1.50;99.90
20366;DHT22;10341;49.894;8.822;2023-02-15T09:04:57;1.60;99.90
20366;DHT22;10341;49.894;8.822;2023-02-15T09:10:16;1.50;99.90
20366;DHT22;10341;49.894;8.822;2023-02-15T09:15:35;1.70;99.90
20366;DHT22;10341;49.894;8.822;2023-02-15T09:20:56;1.70;99.90
20366;DHT22;10341;49.894;8.822;2023-02-15T09:26:16;1.80;99.90
20366;DHT22;10341;49.894;8.822;2023-02-15T09:31:42;1.90;99.90
20366;DHT22;10341;49.894;8.822;2023-02-15T09:37:05;1.90;99.90
20366;DHT22;10341;49.894;8.822;2023-02-15T10:17:09;2.40;99.90
20366;DHT22;10341;49.894;8.822;2023-02-15T10:28:45;3.00;99.90
20366;DHT22;10341;49.894;8.822;2023-02-15T10:45:49;3.20;99.90
20366;DHT22;10341;49.894;8.822;2023-02-15T10:51:11;3.40;99.90
20366;DHT22;10341;49.894;8.822;2023-02-15T10:56:36;3.40;99.90
20366;DHT22;10341;49.894;8.822;2023-02-15T11:07:35;3.30;99.90
20366;DHT22;10341;49.894;8.822;2023-02-15T11:12:58;3.10;99.90
20366;DHT22;10341;49.894;8.822;2023-02-15T11:18:39;3.30;99.90
20366;DHT22;10341;49.894;8.822;2023-02-15T11:24:00;3.50;99.90
20366;DHT22;10341;49.894;8.822;2023-02-15T11:29:40;3.50;99.90
20366;DHT22;10341;49.894;8.822;2023-02-15T11:40:49;3.30;99.90
20366;DHT22;10341;49.894;8.822;2023-02-15T11:46:12;3.40;99.90
20366;DHT22;10341;49.894;8.822;2023-02-15T11:51:32;3.40;99.90
20366;DHT22;10341;49.894;8.822;2023-02-15T11:56:51;3.30;99.90
20366;DHT22;10341;49.894;8.822;2023-02-15T12:02:20;3.40;99.90
20366;DHT22;10341;49.894;8.822;2023-02-15T12:08:13;3.30;99.90
20366;DHT22;10341;49.894;8.822;2023-02-15T12:13:34;3.40;99.90
20366;DHT22;10341;49.894;8.822;2023-02-15T12:18:56;3.60;99.90
20366;DHT22;10341;49.894;8.822;2023-02-15T12:24:20;3.70;99.90
20366;DHT22;10341;49.894;8.822;2023-02-15T12:29:42;3.80;99.90
20366;DHT22;10341;49.894;8.822;2023-02-15T12:35:31;3.80;99.90
20366;DHT22;10341;49.894;8.822;2023-02-15T12:41:03;4.00;99.90
20366;DHT22;10341;49.894;8.822;2023-02-15T12:46:26;4.10;99.90
20366;DHT22;10341;49.894;8.822;2023-02-15T12:51:54;4.30;99.90
20366;DHT22;10341;49.894;8.822;2023-02-15T13:02:51;4.40;99.90
20366;DHT22;10341;49.894;8.822;2023-02-15T13:08:17;4.80;99.90
20366;DHT22;10341;49.894;8.822;2023-02-15T13:13:54;5.10;99.90
20366;DHT22;10341;49.894;8.822;2023-02-15T13:19:19;7.70;99.90
20366;DHT22;10341;49.894;8.822;2023-02-15T13:24:53;9.50;99.90
20366;DHT22;10341;49.894;8.822;2023-02-15T13:30:25;10.30;99.90
20366;DHT22;10341;49.894;8.822;2023-02-15T13:36:03;10.40;99.90
20366;DHT22;10341;49.894;8.822;2023-02-15T13:58:53;10.00;99.90
20366;DHT22;10341;49.894;8.822;2023-02-15T14:21:30;7.00;99.90
20366;DHT22;10341;49.894;8.822;2023-02-15T14:26:59;6.80;99.90
20366;DHT22;10341;49.894;8.822;2023-02-15T14:32:35;6.50;99.90
20366;DHT22;10341;49.894;8.822;2023-02-15T14:38:24;6.30;99.90
20366;DHT22;10341;49.894;8.822;2023-02-15T14:44:14;6.30;99.90
20366;DHT22;10341;49.894;8.822;2023-02-15T14:49:39;6.20;99.90
20366;DHT22;10341;49.894;8.822;2023-02-15T14:54:59;6.10;99.90
20366;DHT22;10341;49.894;8.822;2023-02-15T15:00:48;6.20;99.90
20366;DHT22;10341;49.894;8.822;2023-02-15T15:06:24;6.20;99.90
20366;DHT22;10341;49.894;8.822;2023-02-15T15:11:52;6.10;99.90
20366;DHT22;10341;49.894;8.822;2023-02-15T15:17:55;6.00;99.90
20366;DHT22;10341;49.894;8.822;2023-02-15T15:28:52;5.90;99.90
20366;DHT22;10341;49.894;8.822;2023-02-15T15:34:33;5.80;99.90
20366;DHT22;10341;49.894;8.822;2023-02-15T15:46:13;5.70;99.90
20366;DHT22;10341;49.894;8.822;2023-02-15T15:51:39;5.60;99.90
20366;DHT22;10341;49.894;8.822;2023-02-15T15:57:02;5.50;99.90
20366;DHT22;10341;49.894;8.822;2023-02-15T16:02:22;5.30;99.90
20366;DHT22;10341;49.894;8.822;2023-02-15T16:07:42;5.00;99.90
20366;DHT22;10341;49.894;8.822;2023-02-15T16:13:02;4.70;99.90
20366;DHT22;10341;49.894;8.822;2023-02-15T16:18:25;4.40;99.90
20366;DHT22;10341;49.894;8.822;2023-02-15T16:29:34;3.80;99.90
20366;DHT22;10341;49.894;8.822;2023-02-15T16:35:01;3.60;99.90
20366;DHT22;10341;49.894;8.822;2023-02-15T16:45:49;3.10;99.90
20366;DHT22;10341;49.894;8.822;2023-02-15T16:51:10;3.00;99.90
20366;DHT22;10341;49.894;8.822;2023-02-15T16:56:38;2.80;99.90
20366;DHT22;10341;49.894;8.822;2023-02-15T17:01:58;2.60;99.90
20366;DHT22;10341;49.894;8.822;2023-02-15T17:07:20;2.30;99.90
20366;DHT22;10341;49.894;8.822;2023-02-15T17:12:45;2.20;99.90
20366;DHT22;10341;49.894;8.822;2023-02-15T17:18:06;2.00;99.90
20366;DHT22;10341;49.894;8.822;2023-02-15T17:23:34;1.80;99.90
20366;DHT22;10341;49.894;8.822;2023-02-15T17:28:58;1.60;99.90
20366;DHT22;10341;49.894;8.822;2023-02-15T17:34:48;1.50;99.90
20366;DHT22;10341;49.894;8.822;2023-02-15T17:40:27;1.60;99.90
20366;DHT22;10341;49.894;8.822;2023-02-15T17:45:49;1.70;99.90
20366;DHT22;10341;49.894;8.822;2023-02-15T17:51:13;1.70;99.90
20366;DHT22;10341;49.894;8.822;2023-02-15T17:56:34;1.70;99.90
20366;DHT22;10341;49.894;8.822;2023-02-15T18:01:54;1.80;99.90
20366;DHT22;10341;49.894;8.822;2023-02-15T18:07:32;1.90;99.90
20366;DHT22;10341;49.894;8.822;2023-02-15T18:13:11;2.00;99.90
20366;DHT22;10341;49.894;8.822;2023-02-15T18:18:32;2.00;99.90
20366;DHT22;10341;49.894;8.822;2023-02-15T18:23:52;2.00;99.90
20366;DHT22;10341;49.894;8.822;2023-02-15T18:29:12;2.10;99.90
20366;DHT22;10341;49.894;8.822;2023-02-15T18:34:35;2.10;99.90
20366;DHT22;10341;49.894;8.822;2023-02-15T18:39:56;2.20;99.90
20366;DHT22;10341;49.894;8.822;2023-02-15T18:45:19;2.10;99.90
20366;DHT22;10341;49.894;8.822;2023-02-15T18:50:39;2.10;99.90
20366;DHT22;10341;49.894;8.822;2023-02-15T18:56:00;2.10;99.90
20366;DHT22;10341;49.894;8.822;2023-02-15T19:01:20;2.10;99.90
20366;DHT22;10341;49.894;8.822;2023-02-15T19:06:44;2.10;99.90
20366;DHT22;10341;49.894;8.822;2023-02-15T19:12:08;2.10;99.90
20366;DHT22;10341;49.894;8.822;2023-02-15T19:17:29;2.10;99.90
20366;DHT22;10341;49.894;8.822;2023-02-15T19:22:51;2.10;99.90
20366;DHT22;10341;49.894;8.822;2023-02-15T19:28:29;2.20;99.90
20366;DHT22;10341;49.894;8.822;2023-02-15T19:33:49;2.10;99.90
20366;DHT22;10341;49.894;8.822;2023-02-15T19:39:26;2.10;99.90
20366;DHT22;10341;49.894;8.822;2023-02-15T19:44:46;2.20;99.90
20366;DHT22;10341;49.894;8.822;2023-02-15T19:50:07;2.20;99.90
20366;DHT22;10341;49.894;8.822;2023-02-15T19:55:29;2.20;99.90
20366;DHT22;10341;49.894;8.822;2023-02-15T20:00:50;2.20;99.90
20366;DHT22;10341;49.894;8.822;2023-02-15T20:06:14;2.20;99.90
20366;DHT22;10341;49.894;8.822;2023-02-15T20:11:33;2.10;99.90
20366;DHT22;10341;49.894;8.822;2023-02-15T20:16:53;2.10;99.90
20366;DHT22;10341;49.894;8.822;2023-02-15T20:22:22;2.20;99.90
20366;DHT22;10341;49.894;8.822;2023-02-15T20:27:43;2.20;99.90
20366;DHT22;10341;49.894;8.822;2023-02-15T20:33:02;2.10;99.90
20366;DHT22;10341;49.894;8.822;2023-02-15T20:38:27;2.00;99.90
20366;DHT22;10341;49.894;8.822;2023-02-15T20:43:47;2.00;99.90
20366;DHT22;10341;49.894;8.822;2023-02-15T20:49:07;2.10;99.90
20366;DHT22;10341;49.894;8.822;2023-02-15T20:54:31;2.00;99.90
20366;DHT22;10341;49.894;8.822;2023-02-15T20:59:51;2.00;99.90
20366;DHT22;10341;49.894;8.822;2023-02-15T21:05:23;1.90;99.90
20366;DHT22;10341;49.894;8.822;2023-02-15T21:10:44;1.90;99.90
20366;DHT22;10341;49.894;8.822;2023-02-15T21:16:04;1.90;99.90
20366;DHT22;10341;49.894;8.822;2023-02-15T21:21:24;1.80;99.90
20366;DHT22;10341;49.894;8.822;2023-02-15T21:26:44;1.80;99.90
20366;DHT22;10341;49.894;8.822;2023-02-15T21:32:04;1.80;99.90
20366;DHT22;10341;49.894;8.822;2023-02-15T21:37:28;1.80;99.90
20366;DHT22;10341;49.894;8.822;2023-02-15T21:42:48;1.80;99.90
20366;DHT22;10341;49.894;8.822;2023-02-15T21:53:03;1.80;99.90
20366;DHT22;10341;49.894;8.822;2023-02-15T21:58:26;1.70;99.90
20366;DHT22;10341;49.894;8.822;2023-02-15T22:03:45;1.80;99.90
20366;DHT22;10341;49.894;8.822;2023-02-15T22:09:23;1.70;99.90
20366;DHT22;10341;49.894;8.822;2023-02-15T22:14:45;1.70;99.90
20366;DHT22;10341;49.894;8.822;2023-02-15T22:20:16;1.70;99.90
20366;DHT22;10341;49.894;8.822;2023-02-15T22:25:35;1.70;99.90
20366;DHT22;10341;49.894;8.822;2023-02-15T22:30:55;1.80;99.90
20366;DHT22;10341;49.894;8.822;2023-02-15T22:36:24;1.80;99.90
20366;DHT22;10341;49.894;8.822;2023-02-15T22:41:44;1.90;99.90
20366;DHT22;10341;49.894;8.822;2023-02-15T22:47:03;1.90;99.90
20366;DHT22;10341;49.894;8.822;2023-02-15T22:52:23;2.00;99.90
20366;DHT22;10341;49.894;8.822;2023-02-15T22:57:45;2.00;99.90
20366;DHT22;10341;49.894;8.822;2023-02-15T23:03:17;2.00;99.90
20366;DHT22;10341;49.894;8.822;2023-02-15T23:08:37;1.90;99.90
20366;DHT22;10341;49.894;8.822;2023-02-15T23:13:56;1.90;99.90
20366;DHT22;10341;49.894;8.822;2023-02-15T23:19:16;1.80;99.90
20366;DHT22;10341;49.894;8.822;2023-02-15T23:24:35;1.80;99.90
20366;DHT22;10341;49.894;8.822;2023-02-15T23:29:55;1.70;99.90
20366;DHT22;10341;49.894;8.822;2023-02-15T23:35:16;1.60;99.90
20366;DHT22;10341;49.894;8.822;2023-02-15T23:40:36;1.70;99.90
20366;DHT22;10341;49.894;8.822;2023-02-15T23:46:22;1.60;99.90
20366;DHT22;10341;49.894;8.822;2023-02-15T23:51:49;1.50;99.90
20366;DHT22;10341;49.894;8.822;2023-02-15T23:57:10;1.50;99.90
